Time;durP1;ratioP1;P1;durP2;ratioP2;P2;SDS_P1;SDS_P2;PMS_P1;PMS_P2;Temp;Humidity;BMP_temperature;BMP_pressure;BME280_temperature;BME280_humidity;BME280_pressure;Samples;Min_cycle;Max_cycle;Signal;HPM_P1;HPM_P2
2023/05/21 00:01:33;;;;;;;9.15;3.42;;;16.30;95.60;;;;;;5095974;28;20039;-87
2023/05/21 00:03:59;;;;;;;9.15;3.78;;;16.30;96.00;;;;;;5114503;28;20031;-86
2023/05/21 00:06:25;;;;;;;7.55;3.60;;;16.30;96.50;;;;;;5113204;28;20500;-87
2023/05/21 00:08:50;;;;;;;8.55;3.80;;;16.30;96.80;;;;;;5114361;28;20213;-86
2023/05/21 00:11:16;;;;;;;7.20;2.95;;;16.20;97.20;;;;;;5114074;28;20122;-86
2023/05/21 00:13:42;;;;;;;9.10;3.40;;;16.20;96.60;;;;;;5114514;28;20443;-86
2023/05/21 00:16:09;;;;;;;8.20;3.33;;;16.20;97.00;;;;;;5114318;28;20039;-86
2023/05/21 00:18:38;;;;;;;7.30;3.92;;;16.10;97.30;;;;;;5114064;28;20042;-87
2023/05/21 00:21:04;;;;;;;8.38;4.03;;;16.10;99.00;;;;;;5113720;28;20042;-87
2023/05/21 00:23:31;;;;;;;8.20;4.13;;;16.20;99.40;;;;;;5114339;28;20079;-86
2023/05/21 00:25:58;;;;;;;8.05;3.70;;;16.20;99.10;;;;;;5114071;28;20035;-86
2023/05/21 00:28:24;;;;;;;8.05;3.38;;;16.20;99.60;;;;;;5113972;28;20527;-86
2023/05/21 00:30:49;;;;;;;7.85;3.67;;;16.10;98.50;;;;;;5113724;28;20047;-86
2023/05/21 00:33:15;;;;;;;9.32;4.13;;;16.10;99.90;;;;;;5113969;28;20047;-86
2023/05/21 00:35:41;;;;;;;8.27;3.00;;;16.10;99.90;;;;;;5113835;28;20035;-86
2023/05/21 00:38:07;;;;;;;8.40;3.35;;;16.10;99.80;;;;;;5113843;28;20080;-86
2023/05/21 00:40:34;;;;;;;8.45;4.05;;;16.00;99.90;;;;;;5113571;28;20050;-86
2023/05/21 00:43:00;;;;;;;9.00;4.30;;;16.10;99.90;;;;;;5113825;28;20046;-86
2023/05/21 00:45:28;;;;;;;9.80;3.30;;;16.10;99.90;;;;;;5113751;28;20043;-86
2023/05/21 00:47:54;;;;;;;9.02;4.45;;;16.00;99.90;;;;;;5113527;28;20044;-86
2023/05/21 00:50:21;;;;;;;8.23;3.55;;;16.00;99.90;;;;;;5113240;28;20042;-86
2023/05/21 00:52:47;;;;;;;9.32;3.60;;;16.00;99.90;;;;;;5112714;28;20485;-86
2023/05/21 00:55:13;;;;;;;8.13;4.72;;;16.00;99.90;;;;;;5113166;28;20067;-86
2023/05/21 00:57:40;;;;;;;8.70;4.25;;;15.90;99.90;;;;;;5113446;28;20147;-86
2023/05/21 01:00:07;;;;;;;10.45;4.65;;;16.00;99.90;;;;;;5113217;28;20067;-86
2023/05/21 01:02:35;;;;;;;7.90;3.17;;;15.90;99.90;;;;;;5113321;28;20039;-86
2023/05/21 01:05:05;;;;;;;9.48;4.50;;;15.90;99.90;;;;;;5113186;28;20393;-86
2023/05/21 01:07:33;;;;;;;9.35;4.22;;;15.90;99.90;;;;;;5113666;28;20210;-86
2023/05/21 01:10:04;;;;;;;8.48;4.70;;;15.90;99.90;;;;;;5112987;28;20031;-86
2023/05/21 01:12:31;;;;;;;9.02;4.80;;;15.90;99.90;;;;;;5113278;28;20504;-86
2023/05/21 01:14:59;;;;;;;10.32;4.82;;;15.90;99.90;;;;;;5113122;28;20042;-86
2023/05/21 01:17:27;;;;;;;9.00;4.80;;;15.90;99.90;;;;;;5112870;28;20047;-86
2023/05/21 01:19:54;;;;;;;10.40;4.90;;;15.90;99.90;;;;;;5112912;28;20063;-86
2023/05/21 01:22:20;;;;;;;9.75;4.13;;;15.90;99.90;;;;;;5113107;28;20039;-86
2023/05/21 01:24:49;;;;;;;9.32;4.07;;;15.80;99.90;;;;;;5112984;28;20040;-86
2023/05/21 01:27:14;;;;;;;7.97;4.43;;;15.80;99.90;;;;;;5112732;28;20044;-86
2023/05/21 01:29:40;;;;;;;9.15;4.93;;;15.80;99.90;;;;;;5112642;28;20508;-86
2023/05/21 01:32:27;;;;;;;10.25;3.75;;;15.80;99.90;;;;;;5112634;28;20480;-87
2023/05/21 01:35:03;;;;;;;8.82;5.00;;;15.70;99.90;;;;;;5112970;28;20039;-86
2023/05/21 01:37:35;;;;;;;9.50;4.80;;;15.70;99.90;;;;;;5112818;28;20530;-86
2023/05/21 01:40:16;;;;;;;8.32;4.80;;;15.80;99.90;;;;;;5111228;28;20443;-86
2023/05/21 01:42:43;;;;;;;8.65;4.75;;;15.80;99.90;;;;;;5112762;28;20036;-86
2023/05/21 01:45:10;;;;;;;8.50;3.50;;;15.70;99.90;;;;;;5112520;28;20431;-86
2023/05/21 01:47:36;;;;;;;9.05;4.65;;;15.70;99.90;;;;;;5112538;28;20110;-86
2023/05/21 01:50:04;;;;;;;8.57;4.47;;;15.70;99.90;;;;;;5112348;28;20035;-86
2023/05/21 01:52:29;;;;;;;8.45;3.67;;;15.80;99.90;;;;;;5112502;28;20497;-86
2023/05/21 01:54:59;;;;;;;8.80;4.57;;;15.70;99.90;;;;;;5112372;28;20050;-86
2023/05/21 01:57:24;;;;;;;10.27;4.93;;;15.70;99.90;;;;;;5111348;28;20110;-86
2023/05/21 01:59:52;;;;;;;9.52;4.60;;;15.70;99.90;;;;;;5112234;28;20520;-86
2023/05/21 02:02:18;;;;;;;7.13;3.28;;;15.70;99.90;;;;;;5112349;28;20047;-86
2023/05/21 02:04:45;;;;;;;10.75;4.93;;;15.60;99.90;;;;;;5111994;28;20055;-86
2023/05/21 02:07:13;;;;;;;8.95;4.50;;;15.60;99.90;;;;;;5112297;28;20035;-86
2023/05/21 02:09:39;;;;;;;9.73;3.72;;;15.60;99.90;;;;;;5111756;28;20400;-86
2023/05/21 02:12:05;;;;;;;8.95;5.15;;;15.60;99.90;;;;;;5112283;28;20036;-86
2023/05/21 02:14:32;;;;;;;8.80;4.60;;;15.60;99.90;;;;;;5112392;28;20043;-86
2023/05/21 02:16:59;;;;;;;9.98;5.10;;;15.60;99.90;;;;;;5112336;28;20040;-86
2023/05/21 02:19:26;;;;;;;11.75;5.63;;;15.60;99.90;;;;;;5112096;28;20443;-86
2023/05/21 02:21:52;;;;;;;9.45;4.35;;;15.70;99.90;;;;;;5112001;28;20135;-86
2023/05/21 02:24:17;;;;;;;8.40;3.47;;;15.60;99.90;;;;;;5112098;28;20503;-86
2023/05/21 02:26:43;;;;;;;9.90;5.30;;;15.50;99.90;;;;;;5111921;28;20082;-86
2023/05/21 02:29:08;;;;;;;8.80;4.78;;;15.50;99.90;;;;;;5112170;28;20032;-86
2023/05/21 02:31:34;;;;;;;10.07;5.13;;;15.50;99.90;;;;;;5111817;28;20493;-86
2023/05/21 02:34:00;;;;;;;9.55;5.68;;;15.50;99.90;;;;;;5112562;28;20039;-86
2023/05/21 02:36:27;;;;;;;10.43;3.85;;;15.50;99.90;;;;;;5111966;28;20500;-86
2023/05/21 02:38:53;;;;;;;8.88;4.55;;;15.40;99.90;;;;;;5111948;28;20051;-86
2023/05/21 02:41:20;;;;;;;9.32;5.32;;;15.50;99.90;;;;;;5111852;28;20061;-86
2023/05/21 02:43:46;;;;;;;9.68;3.75;;;15.50;99.90;;;;;;5112025;28;20044;-86
2023/05/21 02:46:11;;;;;;;9.23;5.30;;;15.40;99.90;;;;;;5111881;28;20034;-86
2023/05/21 02:48:37;;;;;;;9.20;4.05;;;15.40;99.90;;;;;;5111879;28;20089;-86
2023/05/21 02:51:02;;;;;;;10.00;5.20;;;15.40;99.90;;;;;;5111570;28;20411;-86
2023/05/21 02:53:28;;;;;;;9.43;3.67;;;15.40;99.90;;;;;;5111789;28;20088;-86
2023/05/21 02:55:54;;;;;;;10.38;4.43;;;15.30;99.90;;;;;;5111956;28;20044;-87
2023/05/21 02:58:22;;;;;;;10.48;5.95;;;15.30;99.90;;;;;;5111724;28;20408;-86
2023/05/21 03:00:47;;;;;;;9.13;4.70;;;15.30;99.90;;;;;;5111412;28;20089;-86
2023/05/21 03:03:13;;;;;;;10.20;6.00;;;15.30;99.90;;;;;;5111838;28;20031;-86
2023/05/21 03:05:39;;;;;;;8.75;4.05;;;15.30;99.90;;;;;;5111803;28;20076;-86
2023/05/21 03:08:04;;;;;;;9.75;5.03;;;15.20;99.90;;;;;;5111516;28;20485;-86
2023/05/21 03:10:30;;;;;;;9.75;6.00;;;15.20;99.90;;;;;;5111337;28;20036;-86
2023/05/21 03:12:55;;;;;;;10.48;6.03;;;15.20;99.90;;;;;;5111798;28;20436;-86
2023/05/21 03:15:22;;;;;;;10.10;4.45;;;15.20;99.90;;;;;;5111785;28;20500;-86
2023/05/21 03:17:49;;;;;;;11.57;6.00;;;15.20;99.90;;;;;;5114440;28;20039;-86
2023/05/21 03:20:17;;;;;;;9.73;6.43;;;15.20;99.90;;;;;;5115126;28;20042;-87
2023/05/21 03:22:43;;;;;;;9.63;5.13;;;15.20;99.90;;;;;;5115532;28;20095;-86
2023/05/21 03:25:10;;;;;;;9.60;4.63;;;15.20;99.90;;;;;;5115281;28;20492;-86
2023/05/21 03:27:37;;;;;;;10.32;6.63;;;15.10;99.90;;;;;;5115364;28;20110;-86
2023/05/21 03:30:03;;;;;;;13.10;5.22;;;15.20;99.90;;;;;;5114928;28;20040;-86
2023/05/21 03:32:29;;;;;;;10.40;6.07;;;15.10;99.90;;;;;;5115117;28;20036;-86
2023/05/21 03:34:55;;;;;;;13.32;6.68;;;15.10;99.90;;;;;;5115031;28;20120;-86
2023/05/21 03:37:20;;;;;;;10.00;6.55;;;15.20;99.90;;;;;;5115249;28;20503;-86
2023/05/21 03:39:46;;;;;;;10.63;6.47;;;15.20;99.90;;;;;;5114632;28;20050;-86
2023/05/21 03:42:12;;;;;;;10.88;6.47;;;15.20;99.90;;;;;;5115114;28;20036;-87
2023/05/21 03:44:38;;;;;;;11.80;4.75;;;15.20;99.90;;;;;;5114759;28;20569;-86
2023/05/21 03:47:04;;;;;;;11.88;6.70;;;15.10;99.90;;;;;;5114993;28;20067;-86
2023/05/21 03:49:30;;;;;;;10.63;5.35;;;15.10;99.90;;;;;;5114337;28;20409;-86
2023/05/21 03:51:55;;;;;;;10.27;7.18;;;15.10;99.90;;;;;;5114972;28;20040;-86
2023/05/21 03:54:21;;;;;;;12.70;7.07;;;15.10;99.90;;;;;;5114789;28;20459;-86
2023/05/21 03:56:46;;;;;;;11.95;7.13;;;15.10;99.90;;;;;;5114811;28;20034;-86
2023/05/21 03:59:12;;;;;;;8.38;4.18;;;15.10;99.90;;;;;;5096100;28;20537;-86
2023/05/21 04:01:38;;;;;;;12.80;5.03;;;15.10;99.90;;;;;;5114340;28;20051;-87
2023/05/21 04:04:03;;;;;;;10.63;6.50;;;15.00;99.90;;;;;;5114493;28;20042;-86
2023/05/21 04:06:29;;;;;;;9.48;4.70;;;15.10;99.90;;;;;;5096229;28;20035;-86
2023/05/21 04:08:55;;;;;;;11.13;6.38;;;15.10;99.90;;;;;;5114459;28;20123;-86
2023/05/21 04:11:21;;;;;;;11.45;4.60;;;15.10;99.90;;;;;;5114120;28;20500;-86
2023/05/21 04:13:47;;;;;;;11.43;6.53;;;15.10;99.90;;;;;;5114385;28;20039;-86
2023/05/21 04:16:13;;;;;;;11.25;6.57;;;15.10;99.90;;;;;;5114401;28;20035;-86
2023/05/21 04:18:40;;;;;;;11.05;6.43;;;15.10;99.90;;;;;;5114019;28;20404;-86
2023/05/21 04:21:06;;;;;;;11.35;6.63;;;15.20;99.90;;;;;;5114114;28;20125;-86
2023/05/21 04:23:32;;;;;;;11.98;5.13;;;15.20;99.90;;;;;;5114229;28;20036;-86
2023/05/21 04:25:58;;;;;;;12.70;6.82;;;15.10;99.90;;;;;;5114217;28;20533;-86
2023/05/21 04:28:23;;;;;;;11.43;6.85;;;15.20;99.90;;;;;;5113695;28;20036;-86
2023/05/21 04:30:49;;;;;;;11.55;5.22;;;15.20;99.90;;;;;;5113836;28;20035;-86
2023/05/21 04:33:19;;;;;;;9.82;4.50;;;15.10;99.90;;;;;;5113917;28;20503;-86
2023/05/21 04:35:49;;;;;;;13.73;7.38;;;15.10;99.90;;;;;;5114013;28;20104;-86
2023/05/21 04:38:18;;;;;;;11.95;6.85;;;15.10;99.90;;;;;;5113837;28;20043;-86
2023/05/21 04:40:50;;;;;;;13.38;4.97;;;15.10;99.90;;;;;;5113646;28;20027;-86
2023/05/21 04:43:16;;;;;;;11.40;6.50;;;15.00;99.90;;;;;;5113835;28;20039;-86
2023/05/21 04:45:42;;;;;;;10.70;7.15;;;15.00;99.90;;;;;;5113644;28;20466;-86
2023/05/21 04:48:08;;;;;;;10.77;6.57;;;15.10;99.90;;;;;;5113847;28;20032;-86
2023/05/21 04:50:34;;;;;;;9.77;4.07;;;15.10;99.90;;;;;;5113503;28;20393;-86
2023/05/21 04:52:59;;;;;;;12.45;6.70;;;15.00;99.90;;;;;;5113765;28;20082;-86
2023/05/21 04:55:26;;;;;;;10.82;6.38;;;15.00;99.90;;;;;;5113536;28;20039;-86
2023/05/21 04:57:52;;;;;;;9.10;4.07;;;15.10;99.90;;;;;;5113155;28;20065;-86
2023/05/21 05:00:18;;;;;;;10.20;4.50;;;15.00;99.90;;;;;;5113138;28;20405;-86
2023/05/21 05:02:43;;;;;;;10.98;6.80;;;15.00;99.90;;;;;;5113417;28;20039;-86
2023/05/21 05:05:09;;;;;;;11.52;6.40;;;15.00;99.90;;;;;;5113401;28;20484;-86
2023/05/21 05:07:35;;;;;;;13.77;6.18;;;15.00;99.90;;;;;;5113334;28;20038;-86
2023/05/21 05:10:01;;;;;;;9.80;4.18;;;15.10;99.90;;;;;;5112769;28;20036;-86
2023/05/21 05:12:27;;;;;;;12.38;6.68;;;15.00;99.90;;;;;;5113196;28;20050;-87
2023/05/21 05:14:52;;;;;;;10.88;6.10;;;15.00;99.90;;;;;;5113212;28;20051;-86
2023/05/21 05:17:18;;;;;;;10.30;4.90;;;15.00;99.90;;;;;;5113171;28;20135;-86
2023/05/21 05:19:44;;;;;;;11.30;6.20;;;15.00;99.90;;;;;;5112805;28;20031;-86
2023/05/21 05:22:10;;;;;;;12.05;6.13;;;15.00;99.90;;;;;;5112983;28;20413;-86
2023/05/21 05:24:36;;;;;;;10.70;5.75;;;15.10;99.90;;;;;;5112885;28;20043;-86
2023/05/21 05:27:01;;;;;;;8.57;3.70;;;15.10;99.90;;;;;;5113117;28;20042;-86
2023/05/21 05:29:27;;;;;;;10.95;6.00;;;15.10;99.90;;;;;;5112816;28;20032;-86
2023/05/21 05:31:52;;;;;;;11.02;5.95;;;15.10;99.90;;;;;;5094494;28;20043;-86
2023/05/21 05:34:18;;;;;;;11.70;5.55;;;15.10;99.90;;;;;;5094632;28;20123;-86
2023/05/21 05:36:44;;;;;;;7.53;3.40;;;15.20;99.90;;;;;;5112814;28;20517;-86
2023/05/21 05:39:10;;;;;;;10.35;6.25;;;15.10;99.90;;;;;;5111975;28;20032;-86
2023/05/21 05:41:35;;;;;;;10.43;4.50;;;15.10;99.90;;;;;;5112308;28;20127;-86
2023/05/21 05:44:01;;;;;;;10.48;5.93;;;15.10;99.90;;;;;;5112536;28;20046;-86
2023/05/21 05:46:28;;;;;;;9.50;5.35;;;15.20;99.90;;;;;;5112764;28;20057;-86
2023/05/21 05:48:53;;;;;;;10.35;3.85;;;15.20;99.90;;;;;;5112486;28;20047;-87
2023/05/21 05:51:19;;;;;;;10.20;5.97;;;15.20;99.90;;;;;;5112272;28;20436;-86
2023/05/21 05:53:45;;;;;;;11.05;5.55;;;15.20;99.90;;;;;;5112353;28;20043;-87
2023/05/21 05:56:10;;;;;;;10.73;5.95;;;15.20;99.90;;;;;;5112344;28;20456;-86
2023/05/21 05:58:36;;;;;;;10.65;4.28;;;15.20;99.90;;;;;;5112295;28;20462;-86
2023/05/21 06:01:02;;;;;;;11.50;5.75;;;15.20;99.90;;;;;;5111998;28;20058;-86
2023/05/21 06:03:28;;;;;;;11.63;5.88;;;15.20;99.90;;;;;;5094145;28;20122;-86
2023/05/21 06:05:54;;;;;;;11.15;6.15;;;15.30;99.90;;;;;;5112264;28;20497;-86
2023/05/21 06:08:19;;;;;;;9.82;5.28;;;15.30;99.90;;;;;;5112218;28;20039;-86
2023/05/21 06:10:45;;;;;;;11.23;5.97;;;15.40;99.90;;;;;;5111874;28;20040;-87
2023/05/21 06:13:10;;;;;;;8.80;3.67;;;15.40;99.90;;;;;;5112300;28;20039;-86
2023/05/21 06:15:38;;;;;;;10.50;4.07;;;15.30;99.90;;;;;;5093982;28;20031;-86
2023/05/21 06:18:03;;;;;;;12.85;5.47;;;15.30;99.90;;;;;;5112186;28;20039;-86
2023/05/21 06:20:29;;;;;;;9.88;5.78;;;15.40;99.90;;;;;;5111760;28;20031;-87
2023/05/21 06:22:55;;;;;;;10.77;5.70;;;15.50;99.90;;;;;;5112110;28;20047;-86
2023/05/21 06:25:21;;;;;;;10.40;3.88;;;15.50;99.90;;;;;;5112319;28;20036;-86
2023/05/21 06:27:46;;;;;;;12.20;5.55;;;15.50;99.90;;;;;;5112119;28;20032;-86
2023/05/21 06:30:12;;;;;;;8.20;3.47;;;15.60;99.90;;;;;;5111974;28;20035;-87
2023/05/21 06:32:37;;;;;;;10.80;5.25;;;15.50;99.90;;;;;;5112068;28;20027;-87
2023/05/21 06:35:03;;;;;;;8.10;3.60;;;15.60;99.90;;;;;;5111978;28;20489;-87
2023/05/21 06:37:29;;;;;;;9.95;4.90;;;15.60;99.90;;;;;;5112179;28;20074;-87
2023/05/21 06:39:55;;;;;;;10.95;5.57;;;15.60;99.90;;;;;;5093524;28;20039;-87
2023/05/21 06:42:20;;;;;;;9.77;3.97;;;15.70;99.90;;;;;;5112033;28;20101;-87
2023/05/21 06:44:46;;;;;;;8.45;4.30;;;15.70;99.90;;;;;;5111951;28;20431;-86
2023/05/21 06:47:11;;;;;;;11.48;5.40;;;15.70;99.90;;;;;;5111962;28;20682;-86
2023/05/21 06:49:37;;;;;;;11.60;5.55;;;15.70;99.90;;;;;;5111391;28;20047;-87
2023/05/21 06:52:03;;;;;;;10.07;4.45;;;15.80;99.90;;;;;;5115430;28;20042;-86
2023/05/21 06:54:28;;;;;;;9.23;3.95;;;15.80;99.90;;;;;;5115823;28;20438;-86
2023/05/21 06:56:54;;;;;;;10.80;5.60;;;15.80;99.90;;;;;;5115819;28;20039;-86
2023/05/21 06:59:20;;;;;;;10.55;5.15;;;15.80;99.90;;;;;;5115534;28;20036;-86
2023/05/21 07:01:45;;;;;;;10.77;5.50;;;15.90;99.90;;;;;;5115371;28;20044;-86
2023/05/21 07:04:11;;;;;;;11.90;5.13;;;16.00;99.90;;;;;;5115744;28;20504;-86
2023/05/21 07:06:37;;;;;;;11.63;5.13;;;16.00;99.90;;;;;;5115850;28;20515;-86
2023/05/21 07:09:04;;;;;;;13.43;5.80;;;16.10;99.90;;;;;;5121283;27;20512;-86
2023/05/21 07:11:31;;;;;;;9.70;3.60;;;16.10;99.90;;;;;;5132010;27;20083;-86
2023/05/21 07:14:01;;;;;;;9.95;5.07;;;16.10;99.90;;;;;;5124743;27;20114;-86
2023/05/21 07:16:26;;;;;;;11.75;4.90;;;16.10;99.90;;;;;;5130171;27;20059;-87
2023/05/21 07:18:52;;;;;;;9.60;3.75;;;16.20;99.90;;;;;;5132749;27;20044;-86
2023/05/21 07:21:18;;;;;;;9.95;4.70;;;16.20;99.90;;;;;;5125066;27;20485;-86
2023/05/21 07:23:43;;;;;;;9.32;3.58;;;16.30;99.90;;;;;;5123820;27;20034;-87
2023/05/21 07:26:10;;;;;;;9.60;4.90;;;16.30;99.90;;;;;;5118947;27;20042;-86
2023/05/21 07:28:36;;;;;;;13.73;5.80;;;16.30;99.90;;;;;;5115193;28;20035;-86
2023/05/21 07:31:01;;;;;;;10.90;5.32;;;16.40;99.90;;;;;;5114784;28;20092;-87
2023/05/21 07:33:27;;;;;;;10.23;5.40;;;16.40;99.90;;;;;;5115358;28;20042;-87
2023/05/21 07:35:52;;;;;;;9.18;5.22;;;16.50;99.90;;;;;;5115292;28;20544;-86
2023/05/21 07:38:18;;;;;;;9.00;4.85;;;16.60;99.90;;;;;;5115057;28;20108;-86
2023/05/21 07:40:44;;;;;;;11.95;5.05;;;16.60;99.90;;;;;;5096348;28;20071;-87
2023/05/21 07:43:09;;;;;;;9.75;5.10;;;16.70;99.90;;;;;;5096554;28;20081;-87
2023/05/21 07:45:35;;;;;;;10.07;5.78;;;16.70;99.90;;;;;;5114977;28;20043;-86
2023/05/21 07:48:01;;;;;;;10.43;4.75;;;16.80;99.90;;;;;;5114951;28;20073;-87
2023/05/21 07:50:27;;;;;;;9.95;5.38;;;16.80;99.90;;;;;;5114566;28;20040;-87
2023/05/21 07:52:52;;;;;;;10.50;5.47;;;16.90;99.90;;;;;;5119509;27;20035;-87
2023/05/21 07:55:18;;;;;;;10.07;4.65;;;17.00;99.90;;;;;;5125090;27;20384;-87
2023/05/21 07:57:44;;;;;;;10.55;5.47;;;17.00;99.90;;;;;;5122882;27;20371;-87
2023/05/21 08:00:13;;;;;;;12.40;5.50;;;17.00;99.90;;;;;;5123442;27;20027;-87
2023/05/21 08:02:38;;;;;;;12.27;5.60;;;17.10;99.90;;;;;;5105535;27;20074;-87
2023/05/21 08:05:09;;;;;;;10.57;5.72;;;17.20;99.90;;;;;;5104774;28;20027;-87
2023/05/21 08:07:35;;;;;;;11.77;5.18;;;17.20;99.90;;;;;;5104281;28;20048;-86
2023/05/21 08:10:01;;;;;;;10.02;5.50;;;17.20;99.90;;;;;;5102324;28;20047;-87
2023/05/21 08:12:26;;;;;;;11.70;4.93;;;17.30;99.90;;;;;;5104438;28;20044;-87
2023/05/21 08:14:57;;;;;;;9.68;5.53;;;17.30;99.90;;;;;;5121265;27;20526;-87
2023/05/21 08:17:22;;;;;;;12.68;6.10;;;17.40;99.90;;;;;;5124184;27;20092;-87
2023/05/21 08:19:48;;;;;;;10.73;5.95;;;17.50;99.90;;;;;;5124604;27;20469;-87
2023/05/21 08:22:13;;;;;;;12.27;6.00;;;17.60;99.90;;;;;;5122877;27;20034;-87
2023/05/21 08:24:40;;;;;;;11.13;5.32;;;17.60;99.90;;;;;;5124439;27;20035;-87
2023/05/21 08:27:06;;;;;;;10.85;5.75;;;17.70;99.90;;;;;;5123554;27;20117;-87
2023/05/21 08:29:32;;;;;;;11.45;5.80;;;17.80;99.90;;;;;;5121942;27;20042;-87
2023/05/21 08:31:58;;;;;;;11.73;5.80;;;17.90;99.90;;;;;;5123693;27;20027;-87
2023/05/21 08:34:23;;;;;;;10.90;5.28;;;18.10;99.90;;;;;;5122799;27;20531;-87
2023/05/21 08:36:50;;;;;;;9.77;5.65;;;18.20;99.90;;;;;;5122698;27;20118;-87
2023/05/21 08:39:18;;;;;;;10.52;5.70;;;18.30;99.90;;;;;;5120494;27;20035;-87
2023/05/21 08:41:48;;;;;;;10.15;5.63;;;18.40;99.90;;;;;;5121913;27;20092;-87
2023/05/21 08:44:20;;;;;;;11.05;6.70;;;18.50;99.30;;;;;;5103088;27;20031;-87
2023/05/21 08:46:54;;;;;;;10.70;6.32;;;18.60;99.90;;;;;;5121532;27;20036;-87
2023/05/21 08:49:25;;;;;;;11.07;6.72;;;18.80;98.50;;;;;;5114895;27;20040;-87
2023/05/21 08:51:52;;;;;;;11.43;6.10;;;18.80;96.70;;;;;;5113798;27;20389;-87
2023/05/21 08:54:21;;;;;;;9.70;5.38;;;18.80;97.10;;;;;;5111248;27;20101;-87
2023/05/21 08:56:48;;;;;;;9.65;5.20;;;18.90;97.50;;;;;;5111579;27;20031;-87
2023/05/21 08:59:15;;;;;;;10.80;6.00;;;19.10;97.20;;;;;;5085583;28;20044;-87
2023/05/21 09:01:42;;;;;;;11.13;5.70;;;19.20;96.80;;;;;;5102124;28;20490;-87
2023/05/21 09:04:09;;;;;;;11.43;5.97;;;19.30;95.60;;;;;;5102500;28;20110;-87
2023/05/21 09:06:36;;;;;;;10.57;5.82;;;19.30;95.40;;;;;;5103584;28;20106;-87
2023/05/21 09:09:11;;;;;;;10.40;6.03;;;19.40;94.60;;;;;;5102457;28;20036;-88
2023/05/21 09:11:37;;;;;;;10.43;5.88;;;19.50;94.10;;;;;;5080406;27;20482;-88
2023/05/21 09:14:04;;;;;;;9.35;6.25;;;19.60;94.00;;;;;;5117978;27;20562;-87
2023/05/21 09:16:29;;;;;;;11.00;5.60;;;19.60;93.40;;;;;;5121760;27;20034;-87
2023/05/21 09:18:55;;;;;;;10.10;6.22;;;19.70;92.60;;;;;;5122932;27;20031;-87
2023/05/21 09:21:28;;;;;;;12.30;7.07;;;19.80;92.90;;;;;;5121190;27;20040;-87
2023/05/21 09:23:55;;;;;;;12.50;6.35;;;19.80;92.80;;;;;;5119591;27;20027;-87
2023/05/21 09:26:22;;;;;;;9.85;6.00;;;19.90;92.40;;;;;;5104295;27;20494;-88
2023/05/21 09:28:48;;;;;;;13.63;7.03;;;19.90;91.50;;;;;;5124130;27;20038;-87
2023/05/21 09:31:14;;;;;;;11.90;6.55;;;19.90;90.90;;;;;;5123562;27;20412;-87
2023/05/21 09:33:48;;;;;;;11.93;6.20;;;19.90;90.70;;;;;;5122704;27;20028;-87
2023/05/21 09:36:16;;;;;;;12.98;6.90;;;20.00;91.10;;;;;;5119753;27;20442;-87
2023/05/21 09:38:43;;;;;;;11.10;6.38;;;20.00;91.00;;;;;;5122242;27;20031;-87
2023/05/21 09:41:09;;;;;;;11.43;7.20;;;20.00;91.10;;;;;;5105121;27;20050;-87
2023/05/21 09:43:35;;;;;;;11.45;6.80;;;20.00;90.80;;;;;;5124866;27;20396;-87
2023/05/21 09:46:01;;;;;;;11.48;6.68;;;20.10;90.30;;;;;;5133187;27;20042;-87
2023/05/21 09:48:38;;;;;;;11.75;6.53;;;20.10;90.50;;;;;;5132986;27;20058;-87
2023/05/21 09:51:18;;;;;;;11.57;7.32;;;20.10;90.80;;;;;;5133011;27;20395;-88
2023/05/21 09:53:51;;;;;;;15.43;7.82;;;20.20;91.00;;;;;;5133179;27;20141;-87
2023/05/21 09:56:23;;;;;;;12.57;7.40;;;20.30;91.00;;;;;;5097322;27;20046;-88
2023/05/21 09:58:55;;;;;;;10.95;7.40;;;20.40;91.00;;;;;;5132836;27;20043;-87
2023/05/21 10:01:22;;;;;;;10.68;6.82;;;20.50;91.00;;;;;;5132893;27;20039;-87
2023/05/21 10:03:58;;;;;;;13.25;8.02;;;20.60;91.40;;;;;;5133000;27;20043;-87
2023/05/21 10:06:28;;;;;;;11.77;7.95;;;20.70;90.30;;;;;;5132954;27;20035;-87
2023/05/21 10:08:55;;;;;;;13.55;8.25;;;20.70;90.30;;;;;;5132820;27;20318;-88
2023/05/21 10:11:23;;;;;;;13.68;8.30;;;20.80;90.10;;;;;;5132340;27;20075;-87
2023/05/21 10:14:06;;;;;;;13.27;8.75;;;20.90;89.00;;;;;;5132866;27;20049;-87
2023/05/21 10:16:33;;;;;;;12.82;9.32;;;21.00;88.90;;;;;;5114464;27;20035;-87
2023/05/21 10:18:59;;;;;;;13.02;9.30;;;21.00;88.50;;;;;;5132588;27;20046;-87
2023/05/21 10:21:26;;;;;;;12.98;9.50;;;21.10;88.70;;;;;;5132313;27;20049;-87
2023/05/21 10:23:55;;;;;;;15.43;9.15;;;21.20;87.90;;;;;;5132527;28;20039;-87
2023/05/21 10:26:22;;;;;;;14.02;9.55;;;21.20;87.70;;;;;;5137361;27;20438;-87
2023/05/21 10:28:51;;;;;;;15.23;9.63;;;21.30;87.40;;;;;;5139477;27;20047;-87
2023/05/21 10:31:17;;;;;;;13.40;9.05;;;21.40;86.50;;;;;;5139025;27;20491;-87
2023/05/21 10:33:43;;;;;;;14.07;9.27;;;21.40;86.50;;;;;;5139385;27;20039;-88
2023/05/21 10:36:10;;;;;;;14.10;9.45;;;21.40;87.10;;;;;;5139221;27;20565;-88
2023/05/21 10:38:37;;;;;;;13.13;9.32;;;21.60;87.30;;;;;;5139632;27;20043;-87
2023/05/21 10:41:05;;;;;;;13.65;9.48;;;21.60;87.70;;;;;;5139154;27;20121;-87
2023/05/21 10:43:41;;;;;;;14.65;9.50;;;21.80;87.30;;;;;;5139238;27;20087;-88
2023/05/21 10:46:27;;;;;;;12.38;9.68;;;21.80;86.40;;;;;;5139447;27;20446;-88
2023/05/21 10:49:17;;;;;;;12.85;9.82;;;21.90;84.80;;;;;;5139117;27;20613;-87
2023/05/21 10:52:05;;;;;;;13.40;9.25;;;22.00;85.40;;;;;;5134885;27;20042;-87
2023/05/21 10:55:27;;;;;;;11.73;9.45;;;22.10;85.10;;;;;;5128752;27;20050;-88
2023/05/21 10:58:15;;;;;;;14.48;10.45;;;22.10;84.40;;;;;;5033974;28;20113;-88
2023/05/21 11:00:42;;;;;;;14.98;10.82;;;22.20;84.40;;;;;;5030795;28;20068;-88
2023/05/21 11:03:11;;;;;;;16.13;11.02;;;22.20;83.00;;;;;;5073159;27;20054;-87
2023/05/21 11:05:52;;;;;;;16.90;10.65;;;22.30;83.10;;;;;;5124838;27;20576;-87
2023/05/21 11:08:25;;;;;;;13.77;10.32;;;22.30;82.70;;;;;;5089960;27;20081;-87
2023/05/21 11:10:57;;;;;;;16.33;12.35;;;22.40;83.40;;;;;;5127347;27;20035;-88
2023/05/21 11:13:25;;;;;;;15.07;11.63;;;22.50;83.10;;;;;;5126406;27;20587;-87
2023/05/21 11:16:04;;;;;;;16.00;11.20;;;22.60;82.60;;;;;;5127253;27;20055;-87
2023/05/21 11:18:39;;;;;;;14.85;10.90;;;22.70;82.60;;;;;;5128588;27;20050;-87
2023/05/21 11:21:05;;;;;;;14.52;11.05;;;22.80;83.40;;;;;;5126370;27;20560;-88
2023/05/21 11:23:49;;;;;;;14.60;11.48;;;22.90;82.00;;;;;;5127266;27;20071;-87
2023/05/21 11:26:20;;;;;;;15.15;11.63;;;23.00;82.00;;;;;;5128787;27;20103;-88
2023/05/21 11:28:49;;;;;;;16.05;11.20;;;23.10;81.10;;;;;;5091363;27;20035;-88
2023/05/21 11:31:28;;;;;;;17.17;13.15;;;23.20;80.00;;;;;;5126687;27;20068;-87
2023/05/21 11:34:13;;;;;;;17.27;12.23;;;23.30;79.20;;;;;;5127074;27;20035;-88
2023/05/21 11:36:43;;;;;;;18.27;12.40;;;23.40;79.70;;;;;;5123757;27;20031;-87
2023/05/21 11:39:12;;;;;;;15.27;12.80;;;23.50;79.00;;;;;;5123810;27;20023;-88
2023/05/21 11:41:57;;;;;;;16.77;12.30;;;23.60;78.70;;;;;;5121268;27;20062;-88
2023/05/21 11:44:39;;;;;;;15.38;12.70;;;23.70;78.30;;;;;;5122998;27;20031;-88
2023/05/21 11:47:06;;;;;;;17.33;13.15;;;23.80;79.50;;;;;;5087795;27;20088;-88
2023/05/21 11:49:33;;;;;;;16.33;13.02;;;24.10;78.70;;;;;;5087908;27;20073;-87
2023/05/21 11:52:06;;;;;;;16.35;12.27;;;24.20;77.70;;;;;;5125584;27;20069;-88
2023/05/21 11:54:36;;;;;;;16.63;13.75;;;24.30;77.10;;;;;;5107576;27;20047;-88
2023/05/21 11:57:08;;;;;;;14.90;12.98;;;24.40;76.30;;;;;;5124305;27;20084;-87
2023/05/21 11:59:35;;;;;;;18.35;13.75;;;24.40;76.40;;;;;;5122666;27;20388;-88
2023/05/21 12:02:02;;;;;;;15.48;12.35;;;24.50;75.60;;;;;;5106461;27;20456;-88
2023/05/21 12:04:31;;;;;;;15.50;13.05;;;24.60;75.40;;;;;;5125074;27;20038;-87
2023/05/21 12:06:57;;;;;;;14.68;12.85;;;24.70;75.40;;;;;;5120672;27;20047;-88
2023/05/21 12:09:23;;;;;;;16.30;14.40;;;24.90;74.80;;;;;;5124414;27;20031;-88
2023/05/21 12:11:50;;;;;;;16.85;13.40;;;24.90;74.20;;;;;;5124654;27;20042;-87
2023/05/21 12:14:16;;;;;;;15.70;12.23;;;25.00;73.80;;;;;;5124833;27;20043;-87
2023/05/21 12:16:42;;;;;;;17.23;12.95;;;25.20;73.80;;;;;;5134923;27;20480;-87
2023/05/21 12:19:08;;;;;;;19.83;14.05;;;25.30;74.30;;;;;;5134946;27;20035;-88
2023/05/21 12:21:35;;;;;;;16.58;14.32;;;25.40;72.80;;;;;;5134468;27;20400;-88
2023/05/21 12:24:01;;;;;;;15.10;13.25;;;25.50;71.80;;;;;;5134793;27;20116;-88
2023/05/21 12:26:27;;;;;;;19.65;14.32;;;25.60;71.60;;;;;;5134781;27;20042;-88
2023/05/21 12:28:53;;;;;;;15.35;12.00;;;25.60;70.70;;;;;;5134698;27;20620;-88
2023/05/21 12:31:23;;;;;;;17.60;14.77;;;25.70;71.40;;;;;;5134300;27;20404;-88
2023/05/21 12:33:52;;;;;;;16.60;14.40;;;25.80;70.60;;;;;;5134781;27;20035;-88
2023/05/21 12:36:29;;;;;;;16.50;13.77;;;25.80;69.60;;;;;;5134653;27;20131;-88
2023/05/21 12:38:56;;;;;;;18.60;14.55;;;26.00;70.70;;;;;;5134497;27;20027;-88
2023/05/21 12:41:22;;;;;;;16.23;13.98;;;26.10;70.70;;;;;;5133986;27;20112;-87